createdAt,value
2018-07-09T00:02:06.208Z,71.78
2018-07-09T00:04:34.289Z,71.61
2018-07-09T00:07:02.314Z,72.60
2018-07-09T00:09:30.297Z,73.08
2018-07-09T00:11:58.289Z,72.25
2018-07-09T00:14:26.295Z,72.43
2018-07-09T00:16:54.273Z,73.47
2018-07-09T00:19:22.262Z,73.52
2018-07-09T00:21:50.236Z,73.25
2018-07-09T00:24:18.267Z,73.92
2018-07-09T00:26:46.356Z,74.77
2018-07-09T00:29:14.345Z,74.66
2018-07-09T00:31:42.324Z,73.74
2018-07-09T00:34:10.300Z,73.23
2018-07-09T00:36:38.288Z,74.41
2018-07-09T00:39:06.818Z,73.64
2018-07-09T00:41:36.033Z,74.62
2018-07-09T00:44:04.050Z,73.68
2018-07-09T00:46:32.065Z,74.11
2018-07-09T00:49:00.553Z,74.13
2018-07-09T00:51:28.565Z,74.41
2018-07-09T00:53:57.369Z,74.08
2018-07-09T00:56:25.377Z,73.70
2018-07-09T00:58:53.411Z,73.56
2018-07-09T01:01:21.418Z,73.76
2018-07-09T01:03:49.413Z,73.68
2018-07-09T01:06:17.428Z,74.55
2018-07-09T01:08:45.474Z,74.49
2018-07-09T01:11:25.254Z,74.18
2018-07-09T01:13:53.253Z,75.44
2018-07-09T01:16:21.289Z,75.31
2018-07-09T01:18:49.294Z,75.02
2018-07-09T01:21:17.296Z,75.70
2018-07-09T01:23:45.313Z,76.79
2018-07-09T01:26:13.327Z,75.87
2018-07-09T01:28:42.053Z,76.57
2018-07-09T01:31:10.085Z,76.82
2018-07-09T01:33:38.056Z,77.46
2018-07-09T01:36:06.061Z,76.80
2018-07-09T01:38:34.072Z,76.87
2018-07-09T01:41:02.097Z,77.81
2018-07-09T01:43:30.113Z,77.96
2018-07-09T01:45:58.108Z,77.58
2018-07-09T01:48:26.640Z,76.95
2018-07-09T01:50:54.658Z,77.86
2018-07-09T01:53:22.644Z,77.88
2018-07-09T01:55:50.627Z,78.47
2018-07-09T01:58:18.623Z,77.44
2018-07-09T02:00:46.718Z,77.88
2018-07-09T02:03:14.695Z,78.02
2018-07-09T02:05:42.698Z,77.52
2018-07-09T02:08:10.731Z,78.40
2018-07-09T02:10:38.849Z,79.16
2018-07-09T02:13:07.173Z,78.95
2018-07-09T02:15:35.169Z,78.36
2018-07-09T02:18:03.154Z,78.74
2018-07-09T02:20:31.229Z,78.27
2018-07-09T02:22:59.173Z,78.38
2018-07-09T02:25:27.288Z,78.82
2018-07-09T02:27:55.356Z,78.88
2018-07-09T02:30:23.382Z,79.23
2018-07-09T02:32:51.356Z,77.99
2018-07-09T02:35:19.342Z,78.93
2018-07-09T02:37:47.353Z,78.19
2018-07-09T02:40:15.341Z,78.02
2018-07-09T02:42:43.498Z,78.93
2018-07-09T02:45:11.509Z,78.67
2018-07-09T02:47:39.528Z,78.71
2018-07-09T02:50:07.533Z,78.24
2018-07-09T02:52:35.525Z,78.64
2018-07-09T02:55:03.493Z,79.55
2018-07-09T02:57:31.549Z,79.81
2018-07-09T02:59:59.551Z,79.61
2018-07-09T03:02:27.600Z,78.64
2018-07-09T03:04:55.701Z,78.16
2018-07-09T03:07:24.398Z,77.80
2018-07-09T03:09:52.389Z,78.35
2018-07-09T03:12:20.393Z,78.40
2018-07-09T03:14:48.377Z,79.56
2018-07-09T03:17:16.363Z,79.31
2018-07-09T03:19:44.368Z,78.88
2018-07-09T03:22:12.373Z,78.20
2018-07-09T03:24:40.409Z,78.68
2018-07-09T03:27:08.476Z,78.38
2018-07-09T03:29:36.650Z,77.65
2018-07-09T03:32:04.769Z,78.15
2018-07-09T03:34:32.821Z,77.89
2018-07-09T03:37:00.789Z,78.34
2018-07-09T03:39:28.841Z,77.34
2018-07-09T03:41:56.844Z,77.82
2018-07-09T03:44:24.853Z,77.67
2018-07-09T03:46:52.854Z,77.37
2018-07-09T03:49:20.861Z,77.87
2018-07-09T03:51:48.868Z,76.82
2018-07-09T03:54:16.847Z,77.71
2018-07-09T03:56:44.845Z,77.41
2018-07-09T03:59:12.825Z,76.62
2018-07-09T04:01:40.796Z,76.97
2018-07-09T04:04:08.809Z,76.07
2018-07-09T04:06:36.774Z,77.38
2018-07-09T04:09:04.796Z,75.87
2018-07-09T04:11:32.788Z,76.69
2018-07-09T04:14:00.981Z,77.30
2018-07-09T04:16:28.996Z,77.11
2018-07-09T04:18:56.997Z,76.58
2018-07-09T04:21:24.993Z,76.57
2018-07-09T04:23:53.017Z,76.88
2018-07-09T04:26:21.068Z,78.23
2018-07-09T04:28:49.208Z,78.47
2018-07-09T04:31:17.221Z,77.52
2018-07-09T04:33:45.313Z,78.14
2018-07-09T04:36:13.325Z,78.91
2018-07-09T04:38:41.336Z,78.23
2018-07-09T04:41:09.873Z,78.21
2018-07-09T04:43:37.868Z,77.93
2018-07-09T04:46:06.049Z,78.26
2018-07-09T04:48:34.048Z,77.47
2018-07-09T04:51:03.278Z,77.79
2018-07-09T04:53:31.300Z,77.43
2018-07-09T04:55:59.291Z,77.84
2018-07-09T04:58:27.268Z,76.94
2018-07-09T05:00:55.289Z,77.74
2018-07-09T05:03:29.929Z,77.63
2018-07-09T05:05:57.985Z,76.27
2018-07-09T05:08:25.981Z,76.47
2018-07-09T05:10:53.981Z,75.54
2018-07-09T05:13:21.980Z,73.82
2018-07-09T05:15:49.976Z,73.85
2018-07-09T05:18:17.964Z,74.53
2018-07-09T05:20:46.020Z,74.98
2018-07-09T05:23:13.945Z,72.26
2018-07-09T05:25:41.983Z,71.02
2018-07-09T05:28:10.463Z,71.20
2018-07-09T05:30:38.461Z,71.53
2018-07-09T05:33:06.480Z,69.58
2018-07-09T05:35:34.428Z,64.00
2018-07-09T05:38:02.444Z,58.87
2018-07-09T05:40:30.460Z,53.60
2018-07-09T05:42:58.584Z,48.06
2018-07-09T05:45:26.581Z,44.75
2018-07-09T05:47:54.590Z,41.39
2018-07-09T05:50:22.688Z,40.33
2018-07-09T05:52:50.689Z,42.31
2018-07-09T05:55:18.701Z,44.02
2018-07-09T05:57:46.676Z,45.99
2018-07-09T06:00:14.690Z,48.75
2018-07-09T06:02:42.817Z,51.51
2018-07-09T06:05:10.802Z,53.13
2018-07-09T06:07:38.784Z,55.93
2018-07-09T06:10:06.770Z,56.87
2018-07-09T06:12:34.757Z,58.50
2018-07-09T06:15:02.824Z,59.56
2018-07-09T06:17:30.741Z,61.24
2018-07-09T06:19:59.678Z,62.59
2018-07-09T06:22:27.679Z,62.68
2018-07-09T06:24:55.677Z,63.78
2018-07-09T06:27:23.840Z,64.36
2018-07-09T06:29:51.833Z,64.93
2018-07-09T06:32:19.841Z,65.52
2018-07-09T06:34:47.870Z,65.35
2018-07-09T06:37:15.852Z,65.52
2018-07-09T06:39:43.857Z,64.91
2018-07-09T06:42:11.837Z,64.96
2018-07-09T06:44:39.892Z,64.15
2018-07-09T06:47:07.852Z,64.35
2018-07-09T06:49:35.852Z,63.95
2018-07-09T06:52:04.340Z,64.64
2018-07-09T06:54:32.316Z,63.64
2018-07-09T06:57:00.288Z,64.95
2018-07-09T06:59:28.284Z,64.26
2018-07-09T07:01:56.265Z,64.26
2018-07-09T07:04:24.362Z,63.20
2018-07-09T07:06:52.346Z,63.38
2018-07-09T07:09:20.353Z,63.22
2018-07-09T07:11:48.338Z,63.17
2018-07-09T07:14:16.390Z,63.63
2018-07-09T07:16:44.345Z,63.02
2018-07-09T07:19:12.349Z,63.31
2018-07-09T07:21:40.360Z,63.20
2018-07-09T07:24:08.560Z,62.55
2018-07-09T07:26:36.595Z,63.42
2018-07-09T07:29:04.681Z,63.65
2018-07-09T07:31:32.649Z,64.11
2018-07-09T07:34:00.633Z,65.10
2018-07-09T07:36:28.609Z,64.80
2018-07-09T07:38:56.576Z,64.75
2018-07-09T07:41:24.576Z,64.97
2018-07-09T07:43:52.580Z,64.64
2018-07-09T07:46:20.566Z,64.83
2018-07-09T07:48:48.557Z,65.82
2018-07-09T07:51:16.528Z,67.54
2018-07-09T07:53:44.512Z,66.21
2018-07-09T07:56:12.511Z,66.78
2018-07-09T07:58:40.504Z,66.43
2018-07-09T08:01:08.496Z,67.55
2018-07-09T08:03:36.489Z,66.57
2018-07-09T08:06:05.564Z,65.75
2018-07-09T08:08:33.545Z,66.06
2018-07-09T08:11:10.910Z,66.15
2018-07-09T08:13:29.597Z,64.48
2018-07-09T08:15:57.538Z,65.87
2018-07-09T08:18:25.524Z,65.99
2018-07-09T08:20:53.509Z,66.66
2018-07-09T08:23:21.509Z,67.24
2018-07-09T08:25:49.521Z,66.79
2018-07-09T08:28:17.554Z,66.53
2018-07-09T08:30:45.531Z,67.72
2018-07-09T08:33:13.529Z,67.44
2018-07-09T08:35:41.508Z,64.64
2018-07-09T08:38:09.488Z,60.15
2018-07-09T08:40:37.499Z,56.21
2018-07-09T08:43:05.585Z,56.22
2018-07-09T08:45:33.588Z,53.96
2018-07-09T08:48:01.577Z,52.64
2018-07-09T08:50:29.560Z,51.44
2018-07-09T08:52:57.548Z,51.35
2018-07-09T08:55:26.417Z,52.06
2018-07-09T08:57:54.407Z,53.42
2018-07-09T09:00:22.893Z,53.43
2018-07-09T09:02:51.121Z,54.98
2018-07-09T09:05:19.112Z,56.22
2018-07-09T09:07:47.136Z,56.57
2018-07-09T09:10:15.198Z,57.54
2018-07-09T09:12:43.197Z,56.21
2018-07-09T09:15:11.248Z,55.95
2018-07-09T09:17:39.249Z,57.61
2018-07-09T09:20:07.302Z,57.67
2018-07-09T09:22:35.288Z,57.77
2018-07-09T09:25:03.292Z,58.89
2018-07-09T09:27:31.277Z,59.35
2018-07-09T09:29:59.288Z,59.42
2018-07-09T09:32:27.272Z,58.69
2018-07-09T09:34:55.291Z,57.79
2018-07-09T09:37:23.310Z,57.07
2018-07-09T09:39:51.550Z,57.53
2018-07-09T09:42:19.541Z,55.56
2018-07-09T09:44:47.534Z,55.44
2018-07-09T09:47:15.546Z,54.52
2018-07-09T09:49:43.538Z,54.38
2018-07-09T09:52:11.625Z,54.76
2018-07-09T09:54:39.640Z,54.55
2018-07-09T09:57:07.696Z,55.60
2018-07-09T09:59:35.712Z,54.39
2018-07-09T10:02:03.729Z,52.02
2018-07-09T10:04:32.300Z,52.37
2018-07-09T10:07:00.294Z,51.36
2018-07-09T10:09:28.316Z,52.31
2018-07-09T10:11:56.345Z,51.88
2018-07-09T10:14:24.340Z,51.05
2018-07-09T10:16:52.487Z,51.52
2018-07-09T10:19:20.523Z,51.78
2018-07-09T10:21:48.526Z,51.11
2018-07-09T10:24:16.550Z,50.41
2018-07-09T10:26:44.578Z,49.45
2018-07-09T10:29:12.604Z,48.52
2018-07-09T10:31:40.625Z,48.03
2018-07-09T10:34:08.633Z,47.93
2018-07-09T10:36:36.649Z,49.17
2018-07-09T10:39:05.593Z,48.26
2018-07-09T10:41:33.620Z,49.17
2018-07-09T10:44:01.618Z,49.44
2018-07-09T10:46:30.458Z,50.13
2018-07-09T10:48:58.468Z,49.39
2018-07-09T10:51:26.513Z,47.83
2018-07-09T10:53:54.500Z,49.09
2018-07-09T10:56:22.515Z,49.60
2018-07-09T10:58:50.532Z,50.07
2018-07-09T11:01:18.520Z,50.35
2018-07-09T11:03:46.520Z,51.92
2018-07-09T11:06:14.540Z,50.25
2018-07-09T11:08:42.529Z,50.08
2018-07-09T11:11:10.552Z,50.16
2018-07-09T11:13:38.554Z,49.27
2018-07-09T11:16:06.570Z,49.05
2018-07-09T11:18:34.600Z,49.91
2018-07-09T11:21:02.609Z,50.20
2018-07-09T11:23:30.652Z,50.64
2018-07-09T11:25:58.668Z,50.18
2018-07-09T11:28:26.687Z,50.03
2018-07-09T11:30:54.656Z,49.48
2018-07-09T11:33:22.644Z,49.65
2018-07-09T11:35:50.645Z,49.81
2018-07-09T11:38:18.636Z,50.50
2018-07-09T11:40:46.648Z,49.40
2018-07-09T11:43:14.630Z,50.00
2018-07-09T11:45:42.629Z,49.41
2018-07-09T11:48:10.663Z,50.32
2018-07-09T11:50:38.749Z,48.02
2018-07-09T11:53:06.697Z,47.99
2018-07-09T11:55:34.694Z,47.58
2018-07-09T11:58:02.692Z,47.80
2018-07-09T12:00:30.678Z,47.47
2018-07-09T12:02:58.672Z,47.05
2018-07-09T12:05:26.689Z,46.64
2018-07-09T12:07:54.724Z,46.92
2018-07-09T12:10:22.729Z,46.79
2018-07-09T12:12:50.730Z,47.25
2018-07-09T12:15:18.729Z,45.95
2018-07-09T12:17:46.714Z,45.15
2018-07-09T12:20:14.798Z,45.13
2018-07-09T12:22:42.977Z,45.67
2018-07-09T12:25:10.989Z,45.59
2018-07-09T12:27:39.064Z,45.47
2018-07-09T12:30:07.053Z,44.75
2018-07-09T12:32:35.056Z,44.98
2018-07-09T12:35:03.069Z,44.12
2018-07-09T12:37:31.104Z,44.12
2018-07-09T12:39:59.152Z,44.76
2018-07-09T12:42:27.637Z,43.32
2018-07-09T12:44:55.627Z,44.15
2018-07-09T12:47:23.645Z,44.09
2018-07-09T12:49:51.670Z,44.12
2018-07-09T12:52:19.697Z,44.02
2018-07-09T12:54:47.713Z,43.13
2018-07-09T12:57:15.709Z,43.51
2018-07-09T12:59:43.720Z,43.11
2018-07-09T13:02:11.708Z,41.94
2018-07-09T13:04:39.747Z,43.10
2018-07-09T13:07:07.778Z,42.51
2018-07-09T13:09:35.816Z,42.79
2018-07-09T13:12:03.806Z,42.50
2018-07-09T13:14:31.914Z,43.01
2018-07-09T13:16:59.879Z,43.05
2018-07-09T13:19:27.972Z,43.52
2018-07-09T13:21:56.060Z,42.24
2018-07-09T13:24:24.080Z,43.33
2018-07-09T13:26:52.093Z,44.03
2018-07-09T13:29:20.116Z,43.31
2018-07-09T13:31:48.856Z,44.58
2018-07-09T13:34:16.849Z,44.99
2018-07-09T13:36:44.860Z,46.17
2018-07-09T13:39:12.865Z,47.56
2018-07-09T13:41:40.877Z,47.14
2018-07-09T13:44:08.882Z,46.17
2018-07-09T13:46:36.938Z,45.56
2018-07-09T13:49:04.979Z,46.78
2018-07-09T13:51:32.916Z,47.21
2018-07-09T13:54:00.936Z,47.41
2018-07-09T13:56:29.041Z,47.43
2018-07-09T13:58:57.033Z,47.77
2018-07-09T14:01:25.012Z,47.53
2018-07-09T14:03:53.004Z,47.84
2018-07-09T14:06:20.993Z,47.43
2018-07-09T14:08:49.007Z,48.52
2018-07-09T14:11:17.005Z,48.62
2018-07-09T14:13:45.001Z,48.81
2018-07-09T14:16:13.017Z,49.28
2018-07-09T14:18:41.702Z,50.04
2018-07-09T14:21:09.736Z,49.97
2018-07-09T14:23:37.777Z,50.29
2018-07-09T14:26:05.773Z,51.23
2018-07-09T14:28:33.769Z,51.03
2018-07-09T14:31:01.738Z,49.98
2018-07-09T14:33:29.736Z,49.72
2018-07-09T14:35:57.727Z,51.37
2018-07-09T14:38:25.744Z,51.72
2018-07-09T14:40:53.736Z,50.71
2018-07-09T14:43:21.725Z,50.36
2018-07-09T14:45:49.707Z,50.84
2018-07-09T14:48:17.699Z,51.31
2018-07-09T14:50:45.676Z,51.31
2018-07-09T14:53:13.689Z,51.71
2018-07-09T14:55:41.676Z,51.82
2018-07-09T14:58:09.688Z,51.48
2018-07-09T15:00:37.695Z,51.10
2018-07-09T15:03:05.739Z,50.46
2018-07-09T15:05:33.764Z,50.46
2018-07-09T15:08:01.725Z,50.27
2018-07-09T15:10:29.700Z,49.95
2018-07-09T15:12:57.696Z,50.22
2018-07-09T15:15:25.690Z,49.00
2018-07-09T15:17:53.691Z,48.83
2018-07-09T15:20:21.719Z,49.17
2018-07-09T15:22:50.379Z,49.38
2018-07-09T15:25:18.387Z,49.02
2018-07-09T15:27:46.457Z,49.09
2018-07-09T15:30:14.465Z,48.59
2018-07-09T15:32:42.465Z,49.88
2018-07-09T15:35:10.522Z,49.53
2018-07-09T15:37:38.503Z,50.72
2018-07-09T15:40:06.528Z,50.28
2018-07-09T15:42:34.553Z,50.60
2018-07-09T15:45:02.500Z,50.35
2018-07-09T15:47:30.533Z,49.94
2018-07-09T15:49:58.541Z,50.75
2018-07-09T15:52:26.524Z,50.91
2018-07-09T15:54:54.532Z,50.69
2018-07-09T15:57:22.511Z,50.31
2018-07-09T15:59:50.519Z,50.41
2018-07-09T16:02:18.524Z,51.08
2018-07-09T16:04:46.544Z,51.78
2018-07-09T16:07:14.629Z,50.92
2018-07-09T16:09:42.655Z,51.13
2018-07-09T16:12:10.864Z,50.97
2018-07-09T16:14:38.972Z,50.69
2018-07-09T16:17:06.973Z,50.42
2018-07-09T16:19:35.093Z,51.07
2018-07-09T16:22:03.492Z,49.30
2018-07-09T16:24:31.514Z,48.85
2018-07-09T16:26:59.552Z,48.93
2018-07-09T16:29:27.636Z,49.54
2018-07-09T16:31:55.616Z,48.65
2018-07-09T16:34:23.637Z,48.12
2018-07-09T16:36:51.668Z,49.07
2018-07-09T16:39:19.838Z,48.71
2018-07-09T16:41:47.862Z,48.21
2018-07-09T16:44:15.862Z,48.37
2018-07-09T16:46:43.906Z,48.99
2018-07-09T16:49:11.864Z,49.43
2018-07-09T16:51:39.894Z,48.36
2018-07-09T16:54:07.868Z,48.78
2018-07-09T16:56:35.875Z,49.26
2018-07-09T16:59:03.973Z,50.74
2018-07-09T17:01:32.173Z,50.69
2018-07-09T17:04:00.232Z,51.96
2018-07-09T17:06:28.245Z,51.76
2018-07-09T17:08:56.249Z,52.25
2018-07-09T17:11:24.410Z,53.00
2018-07-09T17:13:52.404Z,53.19
2018-07-09T17:16:20.465Z,53.92
2018-07-09T17:18:48.476Z,54.62
2018-07-09T17:21:16.501Z,53.75
2018-07-09T17:23:44.500Z,55.21
2018-07-09T17:26:12.533Z,53.92
2018-07-09T17:28:40.564Z,54.02
2018-07-09T17:31:08.588Z,53.53
2018-07-09T17:33:36.593Z,53.67
2018-07-09T17:36:04.600Z,54.50
2018-07-09T17:38:32.585Z,54.64
2018-07-09T17:41:00.565Z,53.19
2018-07-09T17:43:28.556Z,52.85
2018-07-09T17:45:56.548Z,52.97
2018-07-09T17:48:24.528Z,53.34
2018-07-09T17:50:52.533Z,54.27
2018-07-09T17:53:20.511Z,54.52
2018-07-09T17:55:51.017Z,53.71
2018-07-09T17:58:19.231Z,52.91
2018-07-09T18:00:47.243Z,53.64
2018-07-09T18:03:15.221Z,53.91
2018-07-09T18:05:43.204Z,53.36
2018-07-09T18:08:11.219Z,54.01
2018-07-09T18:10:39.327Z,53.98
2018-07-09T18:13:07.292Z,54.43
2018-07-09T18:15:35.431Z,55.47
2018-07-09T18:18:03.672Z,55.12
2018-07-09T18:20:31.699Z,55.35
2018-07-09T18:22:59.770Z,56.16
2018-07-09T18:25:27.767Z,56.05
2018-07-09T18:27:55.765Z,55.68
2018-07-09T18:30:23.744Z,54.83
2018-07-09T18:32:51.750Z,55.34
2018-07-09T18:35:19.773Z,55.32
2018-07-09T18:37:47.734Z,54.87
2018-07-09T18:40:15.726Z,55.43
2018-07-09T18:42:43.740Z,55.25
2018-07-09T18:45:12.343Z,55.56
2018-07-09T18:47:40.390Z,54.86
2018-07-09T18:50:08.490Z,55.58
2018-07-09T18:52:37.272Z,55.85
2018-07-09T18:55:05.449Z,55.74
2018-07-09T18:57:33.500Z,55.73
2018-07-09T19:00:01.566Z,55.80
2018-07-09T19:02:29.572Z,55.19
2018-07-09T19:04:57.588Z,55.11
2018-07-09T19:07:27.128Z,55.82
2018-07-09T19:09:55.197Z,56.15
2018-07-09T19:12:23.360Z,56.32
2018-07-09T19:14:51.748Z,55.51
2018-07-09T19:17:59.773Z,55.70
2018-07-09T19:20:39.166Z,55.93
2018-07-09T19:23:07.156Z,56.33
2018-07-09T19:25:35.128Z,55.80
2018-07-09T19:28:02.602Z,55.55
2018-07-09T19:30:29.636Z,57.31
2018-07-09T19:32:56.678Z,57.56
2018-07-09T19:35:23.722Z,57.32
2018-07-09T19:37:51.072Z,57.23
2018-07-09T19:40:17.828Z,57.75
2018-07-09T19:42:44.870Z,57.93
2018-07-09T19:45:11.926Z,57.46
2018-07-09T19:47:39.005Z,57.61
2018-07-09T19:50:06.014Z,57.88
2018-07-09T19:52:33.065Z,58.79
2018-07-09T19:55:00.135Z,58.69
2018-07-09T19:57:27.169Z,59.20
2018-07-09T19:59:54.196Z,58.94
2018-07-09T20:02:21.253Z,58.76
2018-07-09T20:04:48.284Z,58.55
2018-07-09T20:07:15.397Z,58.91
2018-07-09T20:09:47.933Z,58.62
2018-07-09T20:12:20.489Z,59.58
2018-07-09T20:14:53.076Z,60.15
2018-07-09T20:17:25.313Z,59.91
2018-07-09T20:19:52.368Z,60.03
2018-07-09T20:22:19.421Z,59.77
2018-07-09T20:24:46.458Z,60.58
2018-07-09T20:27:13.533Z,60.44
2018-07-09T20:29:40.571Z,60.73
2018-07-09T20:32:07.643Z,60.87
2018-07-09T20:34:34.668Z,61.24
2018-07-09T20:37:01.710Z,61.23
2018-07-09T20:39:28.779Z,60.22
2018-07-09T20:41:56.653Z,60.44
2018-07-09T20:44:23.676Z,61.93
2018-07-09T20:46:50.741Z,61.64
2018-07-09T20:49:17.785Z,60.81
2018-07-09T20:51:44.841Z,61.35
2018-07-09T20:54:11.900Z,61.02
2018-07-09T20:56:38.937Z,61.05
2018-07-09T20:59:05.997Z,61.95
2018-07-09T21:01:33.034Z,61.44
2018-07-09T21:04:05.380Z,61.99
2018-07-09T21:06:32.452Z,62.16
2018-07-09T21:08:59.665Z,62.45
2018-07-09T21:11:26.762Z,61.66
2018-07-09T21:13:53.821Z,62.78
2018-07-09T21:16:20.970Z,62.08
2018-07-09T21:18:47.899Z,62.37
2018-07-09T21:21:14.961Z,61.40
2018-07-09T21:23:42.021Z,61.23
2018-07-09T21:26:09.063Z,61.54
2018-07-09T21:28:36.217Z,62.69
2018-07-09T21:31:03.216Z,62.10
2018-07-09T21:33:30.264Z,62.04
2018-07-09T21:35:57.329Z,62.71
2018-07-09T21:38:24.390Z,62.34
2018-07-09T21:40:51.415Z,63.39
2018-07-09T21:43:18.476Z,62.89
2018-07-09T21:45:45.511Z,64.04
2018-07-09T21:48:12.558Z,63.38
2018-07-09T21:50:39.620Z,63.99
2018-07-09T21:53:06.657Z,64.00
2018-07-09T21:55:33.725Z,64.08
2018-07-09T21:58:00.792Z,64.58
2018-07-09T22:00:27.825Z,64.99
2018-07-09T22:02:54.881Z,65.59
2018-07-09T22:05:22.613Z,66.25
2018-07-09T22:07:49.669Z,65.89
2018-07-09T22:10:16.692Z,65.44
2018-07-09T22:12:43.876Z,65.07
2018-07-09T22:15:10.902Z,64.85
2018-07-09T22:17:38.277Z,64.95
2018-07-09T22:20:05.321Z,64.86
2018-07-09T22:22:32.742Z,64.87
2018-07-09T22:24:59.798Z,64.29
2018-07-09T22:27:27.081Z,65.87
2018-07-09T22:29:54.113Z,66.40
2018-07-09T22:32:22.550Z,66.00
2018-07-09T22:34:50.633Z,66.47
2018-07-09T22:37:18.768Z,66.02
2018-07-09T22:39:46.784Z,64.77
2018-07-09T22:42:14.896Z,65.63
2018-07-09T22:44:42.947Z,66.13
2018-07-09T22:47:10.945Z,66.74
2018-07-09T22:49:38.932Z,66.83
2018-07-09T22:52:06.938Z,67.54
2018-07-09T22:54:35.241Z,68.22
2018-07-09T22:57:03.249Z,67.63
2018-07-09T22:59:31.245Z,68.99
2018-07-09T23:01:59.265Z,68.94
2018-07-09T23:04:27.271Z,68.52
2018-07-09T23:06:55.276Z,68.58
2018-07-09T23:09:49.312Z,68.41
2018-07-09T23:13:28.774Z,69.46
2018-07-09T23:16:37.489Z,69.61
2018-07-09T23:19:18.833Z,69.62
2018-07-09T23:21:59.356Z,71.23
2018-07-09T23:24:26.853Z,72.51
2018-07-09T23:26:54.367Z,71.92
2018-07-09T23:29:21.409Z,71.25
2018-07-09T23:31:48.880Z,71.87
2018-07-09T23:34:16.529Z,71.03
2018-07-09T23:36:43.633Z,71.17
2018-07-09T23:39:11.132Z,71.64
2018-07-09T23:41:38.189Z,71.93
2018-07-09T23:44:05.550Z,71.03
2018-07-09T23:46:32.797Z,71.70
2018-07-09T23:48:59.963Z,71.31
2018-07-09T23:51:27.036Z,71.51
2018-07-09T23:53:54.464Z,71.68
2018-07-09T23:58:38.195Z,71.27
